createdAt,value
2023-10-02T00:01:19.714Z,8.83
2023-10-02T00:04:25.924Z,8.83
2023-10-02T00:07:31.220Z,8.79
2023-10-02T00:10:33.697Z,8.75
2023-10-02T00:13:36.749Z,8.72
2023-10-02T00:16:39.217Z,8.71
2023-10-02T00:19:48.600Z,8.72
2023-10-02T00:22:52.410Z,8.66
2023-10-02T00:26:05.425Z,8.59
2023-10-02T00:29:11.355Z,8.57
2023-10-02T00:32:14.187Z,8.52
2023-10-02T00:35:16.961Z,8.59
2023-10-02T00:38:19.862Z,8.72
2023-10-02T00:41:23.324Z,8.76
2023-10-02T00:44:42.672Z,8.78
2023-10-02T00:47:48.698Z,8.76
2023-10-02T00:51:00.461Z,8.67
2023-10-02T00:54:22.972Z,8.60
2023-10-02T00:57:28.616Z,8.47
2023-10-02T01:00:37.919Z,8.53
2023-10-02T01:04:01.202Z,8.61
2023-10-02T01:07:13.192Z,8.51
2023-10-02T01:10:22.038Z,8.49
2023-10-02T01:13:39.539Z,8.63
2023-10-02T01:16:52.579Z,8.65
2023-10-02T01:19:57.625Z,8.58
2023-10-02T01:23:17.708Z,8.52
2023-10-02T01:26:20.570Z,8.59
2023-10-02T01:29:24.269Z,8.68
2023-10-02T01:32:27.562Z,8.74
2023-10-02T01:35:30.555Z,8.79
2023-10-02T01:38:35.499Z,8.85
2023-10-02T01:41:39.291Z,8.94
2023-10-02T01:44:56.796Z,9.00
2023-10-02T01:48:00.325Z,9.02
2023-10-02T01:51:17.372Z,9.17
2023-10-02T01:54:23.753Z,9.29
2023-10-02T01:57:26.447Z,9.42
2023-10-02T02:00:29.516Z,9.47
2023-10-02T02:03:32.141Z,9.53
2023-10-02T02:06:35.875Z,9.65
2023-10-02T02:09:44.432Z,9.71
2023-10-02T02:12:56.784Z,9.75
2023-10-02T02:16:09.188Z,9.81
2023-10-02T02:19:13.729Z,9.87
2023-10-02T02:22:18.029Z,9.82
2023-10-02T02:25:29.093Z,9.95
2023-10-02T02:28:31.528Z,9.99
2023-10-02T02:31:34.789Z,10.08
2023-10-02T02:34:38.329Z,10.19
2023-10-02T02:37:43.285Z,10.23
2023-10-02T02:40:45.815Z,10.20
2023-10-02T02:43:49.345Z,10.38
2023-10-02T02:46:55.442Z,10.35
2023-10-02T02:50:01.273Z,10.52
2023-10-02T02:53:24.474Z,10.60
2023-10-02T02:56:29.611Z,10.58
2023-10-02T02:59:32.391Z,10.56
2023-10-02T03:02:35.271Z,10.67
2023-10-02T03:05:42.692Z,10.61
2023-10-02T03:08:47.318Z,10.73
2023-10-02T03:11:52.236Z,10.83
2023-10-02T03:14:56.691Z,10.86
2023-10-02T03:18:00.557Z,10.91
2023-10-02T03:21:23.630Z,10.92
2023-10-02T03:24:26.163Z,10.90
2023-10-02T03:27:28.934Z,10.97
2023-10-02T03:30:45.077Z,10.96
2023-10-02T03:33:47.863Z,10.98
2023-10-02T03:36:54.709Z,10.97
2023-10-02T03:40:00.469Z,11.05
2023-10-02T03:43:20.594Z,11.09
2023-10-02T03:46:37.276Z,11.11
2023-10-02T03:49:42.572Z,11.12
2023-10-02T03:53:05.257Z,11.02
2023-10-02T03:56:26.607Z,11.03
2023-10-02T03:59:33.325Z,11.03
2023-10-02T04:02:38.374Z,10.98
2023-10-02T04:05:44.837Z,10.95
2023-10-02T04:08:47.364Z,10.87
2023-10-02T04:11:52.059Z,10.82
2023-10-02T04:14:55.557Z,10.78
2023-10-02T04:17:59.062Z,10.69
2023-10-02T04:21:08.035Z,10.55
2023-10-02T04:24:13.641Z,10.48
2023-10-02T04:27:20.018Z,10.47
2023-10-02T04:30:26.581Z,10.42
2023-10-02T04:33:38.401Z,10.43
2023-10-02T04:36:44.972Z,10.48
2023-10-02T04:39:57.398Z,10.48
2023-10-02T04:43:10.811Z,10.45
2023-10-02T04:46:16.066Z,10.50
2023-10-02T04:49:19.021Z,10.48
2023-10-02T04:52:36.143Z,10.39
2023-10-02T04:55:45.286Z,10.44
2023-10-02T04:58:59.305Z,10.50
2023-10-02T05:02:23.762Z,10.50
2023-10-02T05:05:32.040Z,10.51
2023-10-02T05:08:42.646Z,10.49
2023-10-02T05:11:58.980Z,10.60
2023-10-02T05:15:08.736Z,10.68
2023-10-02T05:18:18.348Z,10.81
2023-10-02T05:21:37.560Z,10.88
2023-10-02T05:24:43.088Z,10.92
2023-10-02T05:27:48.829Z,10.96
2023-10-02T05:30:51.349Z,11.04
2023-10-02T05:33:58.829Z,11.11
2023-10-02T05:37:14.223Z,11.18
2023-10-02T05:40:21.735Z,11.33
2023-10-02T05:43:26.682Z,11.41
2023-10-02T05:46:49.832Z,11.43
2023-10-02T05:49:55.085Z,11.41
2023-10-02T05:52:58.943Z,11.51
2023-10-02T05:56:08.317Z,11.54
2023-10-02T05:59:12.077Z,11.72
2023-10-02T06:02:16.313Z,11.78
2023-10-02T06:05:19.862Z,11.86
2023-10-02T06:08:25.046Z,11.94
2023-10-02T06:11:29.864Z,11.93
2023-10-02T06:14:40.864Z,12.09
2023-10-02T06:17:45.277Z,12.13
2023-10-02T06:21:02.579Z,12.17
2023-10-02T06:24:06.317Z,12.39
2023-10-02T06:27:15.502Z,12.46
2023-10-02T06:30:18.512Z,12.48
2023-10-02T06:33:23.231Z,12.53
2023-10-02T06:36:26.389Z,12.47
2023-10-02T06:39:30.607Z,12.64
2023-10-02T06:42:35.035Z,12.76
2023-10-02T06:45:53.877Z,12.75
2023-10-02T06:48:57.706Z,12.88
2023-10-02T06:52:12.604Z,13.08
2023-10-02T06:55:15.521Z,13.22
2023-10-02T06:58:18.800Z,13.39
2023-10-02T07:01:22.012Z,13.49
2023-10-02T07:04:31.292Z,13.61
2023-10-02T07:07:34.264Z,13.66
2023-10-02T07:10:43.714Z,13.82
2023-10-02T07:13:53.013Z,13.79
2023-10-02T07:17:13.320Z,14.01
2023-10-02T07:20:17.159Z,14.11
2023-10-02T07:23:24.853Z,14.12
2023-10-02T07:26:46.182Z,14.21
2023-10-02T07:29:48.844Z,14.32
2023-10-02T07:32:53.377Z,14.41
2023-10-02T07:35:56.198Z,14.52
2023-10-02T07:39:02.172Z,14.52
2023-10-02T07:42:11.720Z,14.71
2023-10-02T07:45:26.019Z,14.88
2023-10-02T07:48:32.274Z,15.12
2023-10-02T07:51:38.474Z,15.32
2023-10-02T07:54:46.917Z,15.38
2023-10-02T07:57:59.565Z,15.51
2023-10-02T08:01:12.715Z,15.68
2023-10-02T08:04:15.868Z,15.82
2023-10-02T08:07:27.516Z,15.92
2023-10-02T08:10:51.051Z,16.19
2023-10-02T08:13:54.495Z,16.39
2023-10-02T08:17:00.820Z,16.51
2023-10-02T08:20:21.829Z,16.76
2023-10-02T08:23:25.314Z,16.96
2023-10-02T08:26:32.281Z,17.09
2023-10-02T08:29:38.095Z,17.32
2023-10-02T08:32:41.073Z,17.57
2023-10-02T08:35:48.309Z,17.61
2023-10-02T08:38:55.133Z,17.72
2023-10-02T08:42:11.297Z,17.88
2023-10-02T08:45:21.995Z,17.74
2023-10-02T08:48:26.730Z,17.75
2023-10-02T08:51:37.739Z,17.98
2023-10-02T08:54:42.681Z,17.95
2023-10-02T08:58:10.523Z,18.11
2023-10-02T09:01:22.414Z,18.44
2023-10-02T09:04:28.264Z,18.44
2023-10-02T09:07:52.337Z,18.68
2023-10-02T09:11:00.131Z,18.72
2023-10-02T09:14:27.660Z,18.85
2023-10-02T09:17:45.919Z,19.13
2023-10-02T09:20:56.004Z,19.36
2023-10-02T09:24:03.341Z,19.66
2023-10-02T09:27:32.435Z,19.87
2023-10-02T09:30:34.955Z,20.00
2023-10-02T09:33:50.976Z,20.24
2023-10-02T09:37:56.144Z,20.36
2023-10-02T09:41:17.210Z,20.71
2023-10-02T09:44:28.905Z,21.41
2023-10-02T09:47:32.050Z,21.58
2023-10-02T09:50:42.650Z,21.82
2023-10-02T09:54:06.420Z,22.04
2023-10-02T09:57:17.665Z,22.15
2023-10-02T10:00:38.891Z,22.48
2023-10-02T10:03:51.292Z,22.86
2023-10-02T10:07:25.254Z,22.85
2023-10-02T10:10:30.507Z,22.72
2023-10-02T10:13:48.181Z,23.16
2023-10-02T10:16:51.872Z,23.30
2023-10-02T10:20:10.995Z,23.61
2023-10-02T10:23:33.368Z,23.43
2023-10-02T10:26:46.272Z,23.79
2023-10-02T10:30:09.867Z,23.62
2023-10-02T10:33:12.971Z,23.71
2023-10-02T10:36:39.194Z,23.83
2023-10-02T10:40:01.440Z,24.04
2023-10-02T10:43:07.171Z,24.19
2023-10-02T10:46:14.235Z,24.07
2023-10-02T10:49:25.698Z,24.07
2023-10-02T10:52:37.800Z,24.21
2023-10-02T10:55:41.715Z,24.03
2023-10-02T10:58:45.533Z,23.94
2023-10-02T11:02:14.082Z,23.82
2023-10-02T11:05:21.702Z,23.66
2023-10-02T11:08:30.381Z,23.90
2023-10-02T11:11:49.756Z,24.42
2023-10-02T11:14:53.461Z,24.69
2023-10-02T11:18:23.066Z,24.83
2023-10-02T11:21:26.262Z,24.74
2023-10-02T11:24:29.210Z,24.87
2023-10-02T11:27:36.145Z,24.94
2023-10-02T11:30:38.875Z,25.25
2023-10-02T11:33:42.333Z,25.25
2023-10-02T11:36:54.358Z,25.50
2023-10-02T11:39:57.970Z,25.68
2023-10-02T11:43:03.464Z,25.58
2023-10-02T11:46:08.559Z,25.24
2023-10-02T11:49:14.863Z,24.60
2023-10-02T11:52:20.691Z,24.73
2023-10-02T11:55:25.518Z,24.86
2023-10-02T11:58:29.757Z,25.13
2023-10-02T12:01:32.377Z,25.28
2023-10-02T12:04:35.522Z,25.27
2023-10-02T12:07:40.357Z,25.30
2023-10-02T12:10:43.478Z,25.33
2023-10-02T12:13:46.182Z,25.51
2023-10-02T12:16:49.329Z,24.88
2023-10-02T12:19:53.309Z,25.08
2023-10-02T12:22:56.341Z,25.07
2023-10-02T12:26:00.403Z,24.98
2023-10-02T12:29:04.211Z,24.97
2023-10-02T12:32:07.209Z,24.93
2023-10-02T12:35:10.613Z,24.82
2023-10-02T12:38:15.425Z,24.99
2023-10-02T12:41:26.128Z,24.96
2023-10-02T12:44:32.533Z,25.01
2023-10-02T12:47:38.576Z,24.99
2023-10-02T12:50:41.413Z,25.21
2023-10-02T12:53:45.225Z,25.05
2023-10-02T12:56:47.750Z,24.91
2023-10-02T12:59:50.821Z,24.72
2023-10-02T13:02:53.670Z,24.59
2023-10-02T13:05:59.564Z,24.72
2023-10-02T13:09:17.666Z,24.57
2023-10-02T13:12:21.010Z,24.29
2023-10-02T13:15:25.828Z,23.79
2023-10-02T13:18:28.958Z,23.83
2023-10-02T13:21:49.911Z,23.82
2023-10-02T13:24:53.082Z,23.66
2023-10-02T13:27:55.767Z,23.63
2023-10-02T13:30:58.613Z,23.74
2023-10-02T13:34:04.562Z,24.09
2023-10-02T13:37:07.378Z,24.21
2023-10-02T13:40:33.225Z,24.30
2023-10-02T13:43:38.907Z,24.34
2023-10-02T13:46:43.398Z,24.41
2023-10-02T13:49:46.680Z,24.08
2023-10-02T13:52:54.462Z,23.88
2023-10-02T13:56:05.153Z,23.66
2023-10-02T13:59:07.757Z,23.45
2023-10-02T14:02:13.190Z,23.36
2023-10-02T14:05:16.906Z,23.37
2023-10-02T14:08:21.185Z,23.45
2023-10-02T14:11:25.203Z,23.30
2023-10-02T14:14:28.249Z,23.19
2023-10-02T14:17:35.425Z,23.04
2023-10-02T14:20:40.419Z,22.96
2023-10-02T14:23:45.026Z,22.98
2023-10-02T14:26:48.019Z,22.63
2023-10-02T14:29:50.610Z,22.77
2023-10-02T14:32:54.187Z,22.61
2023-10-02T14:35:57.829Z,22.51
2023-10-02T14:39:00.734Z,22.43
2023-10-02T14:42:05.806Z,22.53
2023-10-02T14:45:11.043Z,22.54
2023-10-02T14:51:27.343Z,22.30
2023-10-02T14:54:29.846Z,22.35
2023-10-02T14:57:32.627Z,22.38
2023-10-02T15:00:36.097Z,22.35
2023-10-02T15:03:41.520Z,22.49
2023-10-02T15:06:44.707Z,22.43
2023-10-02T15:09:47.665Z,22.45
2023-10-02T15:12:54.234Z,22.32
2023-10-02T15:15:58.781Z,22.27
2023-10-02T15:19:02.545Z,22.01
2023-10-02T15:22:05.554Z,21.93
2023-10-02T15:25:09.303Z,21.95
2023-10-02T15:28:12.079Z,21.94
2023-10-02T15:31:15.673Z,21.91
2023-10-02T15:34:20.133Z,21.68
2023-10-02T15:37:22.918Z,21.74
2023-10-02T15:40:26.220Z,21.69
2023-10-02T15:43:30.538Z,21.68
2023-10-02T15:46:34.804Z,21.75
2023-10-02T15:49:39.493Z,21.65
2023-10-02T15:52:44.440Z,21.59
2023-10-02T15:55:47.745Z,21.56
2023-10-02T15:58:50.807Z,21.51
2023-10-02T16:01:54.563Z,21.49
2023-10-02T16:04:58.246Z,21.47
2023-10-02T16:08:01.677Z,21.49
2023-10-02T16:11:05.307Z,21.34
2023-10-02T16:14:07.948Z,21.34
2023-10-02T16:17:11.573Z,21.40
2023-10-02T16:20:15.753Z,21.41
2023-10-02T16:23:19.255Z,21.37
2023-10-02T16:26:24.309Z,21.32
2023-10-02T16:29:27.840Z,21.25
2023-10-02T16:32:31.270Z,21.23
2023-10-02T16:35:36.601Z,21.11
2023-10-02T16:38:48.740Z,21.02
2023-10-02T16:41:59.069Z,21.02
2023-10-02T16:45:02.033Z,21.00
2023-10-02T16:48:07.149Z,20.94
2023-10-02T16:51:13.971Z,20.95
2023-10-02T16:54:16.783Z,20.93
2023-10-02T16:57:19.278Z,20.89
2023-10-02T17:00:23.852Z,20.84
2023-10-02T17:03:27.851Z,20.76
2023-10-02T17:06:32.399Z,20.74
2023-10-02T17:09:34.938Z,20.66
2023-10-02T17:12:37.837Z,20.57
2023-10-02T17:15:40.956Z,20.45
2023-10-02T17:18:44.433Z,20.37
2023-10-02T17:21:48.002Z,20.21
2023-10-02T17:24:51.674Z,20.15
2023-10-02T17:28:00.796Z,20.12
2023-10-02T17:31:05.089Z,20.11
2023-10-02T17:34:11.199Z,20.06
2023-10-02T17:37:16.150Z,20.05
2023-10-02T17:40:23.725Z,20.01
2023-10-02T17:43:30.809Z,19.92
2023-10-02T17:46:36.071Z,19.86
2023-10-02T17:49:47.304Z,19.77
2023-10-02T17:52:51.371Z,19.65
2023-10-02T17:55:55.520Z,19.55
2023-10-02T17:59:00.037Z,19.52
2023-10-02T18:02:06.897Z,19.54
2023-10-02T18:05:11.915Z,19.51
2023-10-02T18:08:18.874Z,19.54
2023-10-02T18:11:27.500Z,19.51
2023-10-02T18:14:37.511Z,19.47
2023-10-02T18:17:48.766Z,19.52
2023-10-02T18:20:52.924Z,19.51
2023-10-02T18:23:58.466Z,19.49
2023-10-02T18:27:03.230Z,19.47
2023-10-02T18:30:11.220Z,19.43
2023-10-02T18:33:21.884Z,19.44
2023-10-02T18:36:26.697Z,19.40
2023-10-02T18:39:31.488Z,19.33
2023-10-02T18:42:36.833Z,19.33
2023-10-02T18:45:41.114Z,19.27
2023-10-02T18:48:46.631Z,19.26
2023-10-02T18:51:51.822Z,19.25
2023-10-02T18:54:55.914Z,19.17
2023-10-02T18:58:00.220Z,19.10
2023-10-02T19:01:18.651Z,19.06
2023-10-02T19:04:23.596Z,18.94
2023-10-02T19:07:28.570Z,18.84
2023-10-02T19:10:35.747Z,18.82
2023-10-02T19:13:40.857Z,18.76
2023-10-02T19:16:46.244Z,18.67
2023-10-02T19:19:51.348Z,18.54
2023-10-02T19:22:58.139Z,18.52
2023-10-02T19:26:02.479Z,18.41
2023-10-02T19:29:07.166Z,18.34
2023-10-02T19:32:12.995Z,18.29
2023-10-02T19:35:17.188Z,18.21
2023-10-02T19:38:22.584Z,18.17
2023-10-02T19:41:27.795Z,18.13
2023-10-02T19:44:32.801Z,18.00
2023-10-02T19:47:36.849Z,17.94
2023-10-02T19:50:40.652Z,17.97
2023-10-02T19:53:45.962Z,17.95
2023-10-02T19:56:51.232Z,17.91
2023-10-02T19:59:54.922Z,17.73
2023-10-02T20:02:58.458Z,17.73
2023-10-02T20:06:12.266Z,17.75
2023-10-02T20:09:17.664Z,17.75
2023-10-02T20:12:23.329Z,17.75
2023-10-02T20:15:28.947Z,17.68
2023-10-02T20:18:33.207Z,17.75
2023-10-02T20:21:38.862Z,17.75
2023-10-02T20:24:42.312Z,17.79
2023-10-02T20:27:48.890Z,17.77
2023-10-02T20:30:52.371Z,17.75
2023-10-02T20:33:57.427Z,17.69
2023-10-02T20:37:02.374Z,17.73
2023-10-02T20:40:08.407Z,17.71
2023-10-02T20:43:13.523Z,17.78
2023-10-02T20:46:16.346Z,17.83
2023-10-02T20:49:19.411Z,17.80
2023-10-02T20:52:22.079Z,17.68
2023-10-02T20:55:27.618Z,17.73
2023-10-02T20:58:30.484Z,17.75
2023-10-02T21:01:33.746Z,17.74
2023-10-02T21:04:36.798Z,17.77
2023-10-02T21:07:43.062Z,17.81
2023-10-02T21:10:45.674Z,17.76
2023-10-02T21:13:49.989Z,17.84
2023-10-02T21:16:52.784Z,17.78
2023-10-02T21:19:57.489Z,17.82
2023-10-02T21:23:00.055Z,17.86
2023-10-02T21:26:06.169Z,17.79
2023-10-02T21:29:08.646Z,17.63
2023-10-02T21:32:11.694Z,17.63
2023-10-02T21:35:14.260Z,17.76
2023-10-02T21:38:17.031Z,17.64
2023-10-02T21:41:20.647Z,17.59
2023-10-02T21:44:23.661Z,17.70
2023-10-02T21:47:26.290Z,17.66
2023-10-02T21:50:29.851Z,17.70
2023-10-02T21:53:35.793Z,17.75
2023-10-02T21:56:38.804Z,17.68
2023-10-02T21:59:41.447Z,17.75
2023-10-02T22:02:44.779Z,17.77
2023-10-02T22:05:48.098Z,17.64
2023-10-02T22:08:53.898Z,17.73
2023-10-02T22:11:56.513Z,17.78
2023-10-02T22:15:01.423Z,17.74
2023-10-02T22:18:05.509Z,17.76
2023-10-02T22:21:21.739Z,17.83
2023-10-02T22:24:25.785Z,17.84
2023-10-02T22:27:28.522Z,17.74
2023-10-02T22:30:35.068Z,17.78
2023-10-02T22:33:39.408Z,17.72
2023-10-02T22:36:42.272Z,17.75
2023-10-02T22:39:45.140Z,17.77
2023-10-02T22:42:49.991Z,17.69
2023-10-02T22:45:53.010Z,17.74
2023-10-02T22:48:57.241Z,17.61
2023-10-02T22:52:01.481Z,17.59
2023-10-02T22:55:07.512Z,17.64
2023-10-02T22:58:10.577Z,17.46
2023-10-02T23:01:13.826Z,17.44
2023-10-02T23:04:16.974Z,17.51
2023-10-02T23:07:20.065Z,17.32
2023-10-02T23:10:26.240Z,17.35
2023-10-02T23:13:29.259Z,17.22
2023-10-02T23:16:34.272Z,17.25
2023-10-02T23:19:41.985Z,17.18
2023-10-02T23:22:47.282Z,17.05
2023-10-02T23:25:50.150Z,16.89
2023-10-02T23:28:53.002Z,16.87
2023-10-02T23:31:55.775Z,16.80
2023-10-02T23:34:58.536Z,16.74
2023-10-02T23:38:01.888Z,16.74
2023-10-02T23:41:05.676Z,16.61
2023-10-02T23:44:13.436Z,16.57
2023-10-02T23:47:17.827Z,16.51
2023-10-02T23:50:20.662Z,16.43
2023-10-02T23:53:27.053Z,16.36
2023-10-02T23:56:30.269Z,16.21
2023-10-02T23:59:34.252Z,16.16
